D/T METAR WX W/DIR W/SPE G/SPE TEMP DEWP
3/07/20 23:00 EIDW 032200Z 25007KT 200V290 9999 -DZ SCT004 BKN008 BKN011 16/16 Q1004 NOSIG -DZ WSW (250°) 8.1mph 16°C 16°C
3/07/20 22:30 EIDW 032130Z 24008KT 190V280 9999 FEW005 SCT009 BKN011 16/15 Q1004 NOSIG WSW (240°) 9.2mph 16°C 15°C
3/07/20 22:00 EIDW 032100Z 24007KT 190V290 9999 SCT010 SCT016 BKN080 17/16 Q1004 NOSIG WSW (240°) 8.1mph 17°C 16°C
3/07/20 21:30 EIDW 032030Z 24009KT 200V280 9999 FEW010 SCT022 BKN100 17/16 Q1004 NOSIG WSW (240°) 10.4mph 17°C 16°C
3/07/20 21:00 EIDW 032000Z 23008KT 190V280 9999 -DZ FEW010 SCT022 BKN100 17/16 Q1004 NOSIG -DZ SW (230°) 9.2mph 17°C 16°C
3/07/20 20:30 EIDW 031930Z 23009KT 160V280 9999 FEW008 SCT100 BKN250 17/15 Q1004 NOSIG SW (230°) 10.4mph 17°C 15°C
3/07/20 20:00 EIDW 031900Z 24010KT 200V290 9999 FEW008 SCT012 BKN250 18/16 Q1004 NOSIG WSW (240°) 11.5mph 18°C 16°C
3/07/20 19:30 EIDW 031830Z 23011KT 190V280 9999 FEW010 SCT015 BKN150 18/16 Q1004 NOSIG SW (230°) 12.7mph 18°C 16°C
3/07/20 19:00 EIDW 031800Z 24010G21KT 200V270 9999 FEW010 BKN150 18/15 Q1004 NOSIG WSW (240°) 11.5mph 24.2mph 18°C 15°C
3/07/20 18:30 EIDW 031730Z 24011G21KT 190V280 9999 FEW010 SCT140 BKN250 19/15 Q1004 NOSIG WSW (240°) 12.7mph 24.2mph 19°C 15°C
3/07/20 18:00 EIDW 031700Z 23011KT 200V280 9999 FEW010 SCT015 BKN020 18/15 Q1005 NOSIG SW (230°) 12.7mph 18°C 15°C
3/07/20 17:30 EIDW 031630Z 23012KT 180V290 9999 FEW015 SCT100 BKN120 19/15 Q1005 NOSIG SW (230°) 13.8mph 19°C 15°C
3/07/20 17:00 EIDW 031600Z 24015KT 170V280 9999 FEW015 SCT100 BKN120 18/15 Q1005 NOSIG WSW (240°) 17.3mph 18°C 15°C
3/07/20 16:30 EIDW 031530Z 23014G24KT 190V270 9999 FEW015 SCT020 BKN250 18/15 Q1005 NOSIG SW (230°) 16.1mph 27.6mph 18°C 15°C
3/07/20 16:00 EIDW 031500Z 24014G28KT 200V280 9999 FEW012 SCT020 BKN120 18/15 Q1005 NOSIG WSW (240°) 16.1mph 32.2mph 18°C 15°C
3/07/20 15:30 EIDW 031430Z 23013G27KT 190V260 9999 FEW015 SCT100 BKN120 17/15 Q1005 NOSIG SW (230°) 15.0mph 31.1mph 17°C 15°C
3/07/20 15:00 EIDW 031400Z 23013G26KT 180V270 9999 FEW015 SCT090 BKN110 17/14 Q1005 NOSIG SW (230°) 15.0mph 29.9mph 17°C 14°C
3/07/20 14:30 EIDW 031330Z 23011KT 180V260 9999 FEW015 SCT020 BKN100 16/14 Q1006 NOSIG SW (230°) 12.7mph 16°C 14°C
3/07/20 14:00 EIDW 031300Z 23011KT 190V260 9999 -RA FEW015 SCT020 BKN100 16/15 Q1006 NOSIG -RA SW (230°) 12.7mph 16°C 15°C
3/07/20 13:30 EIDW 031230Z 23011KT 190V260 9999 -RA FEW012 SCT080 BKN100 15/14 Q1006 NOSIG -RA SW (230°) 12.7mph 15°C 14°C
3/07/20 13:00 EIDW 031200Z 23011G22KT 190V270 9999 -RA FEW015 SCT022 BKN080 16/14 Q1006 NOSIG -RA SW (230°) 12.7mph 25.3mph 16°C 14°C
3/07/20 12:30 EIDW 031130Z 23015G25KT 200V280 9999 FEW010 SCT015 BKN120 16/13 Q1006 NOSIG SW (230°) 17.3mph 28.8mph 16°C 13°C
3/07/20 12:00 EIDW 031100Z 23012G25KT 190V270 9999 FEW010 SCT015 OVC120 16/13 Q1006 NOSIG SW (230°) 13.8mph 28.8mph 16°C 13°C
3/07/20 11:30 EIDW 031030Z 23014KT 200V280 9999 -DZ FEW010 SCT015 BKN020 15/13 Q1006 NOSIG -DZ SW (230°) 16.1mph 15°C 13°C
3/07/20 11:00 EIDW 031000Z 23013G24KT 180V260 9999 VCSH FEW012 SCT015 BKN020 15/13 Q1006 NOSIG VCSH SW (230°) 15.0mph 27.6mph 15°C 13°C
3/07/20 10:30 EIDW 030930Z 23014G24KT 190V280 9999 FEW012 SCT015 BKN020 15/13 Q1006 NOSIG SW (230°) 16.1mph 27.6mph 15°C 13°C
3/07/20 10:00 EIDW 030900Z 23015G28KT 190V280 9999 FEW012 SCT015 BKN020 15/12 Q1006 NOSIG SW (230°) 17.3mph 32.2mph 15°C 12°C
3/07/20 09:30 EIDW 030830Z 23013G26KT 200V270 9999 FEW015 BKN020 BKN120 15/12 Q1007 NOSIG SW (230°) 15.0mph 29.9mph 15°C 12°C
3/07/20 09:00 EIDW 030800Z 23014G26KT 190V270 9999 FEW015 SCT020 BKN120 15/12 Q1006 NOSIG SW (230°) 16.1mph 29.9mph 15°C 12°C
3/07/20 08:30 EIDW 030730Z 23016G32KT 190V260 9999 FEW020 SCT100 BKN120 14/12 Q1007 NOSIG SW (230°) 18.4mph 36.8mph 14°C 12°C
3/07/20 08:00 EIDW 030700Z 23014G30KT 200V270 9999 FEW012 SCT025 BKN090 14/11 Q1007 NOSIG SW (230°) 16.1mph 34.5mph 14°C 11°C
3/07/20 07:30 EIDW 030630Z 23015G29KT 190V260 9999 FEW012 SCT040 BKN100 13/11 Q1007 NOSIG SW (230°) 17.3mph 33.4mph 13°C 11°C
3/07/20 07:00 EIDW 030600Z 23014G25KT 190V260 9999 FEW012 SCT030 BKN060 13/11 Q1007 NOSIG SW (230°) 16.1mph 28.8mph 13°C 11°C
3/07/20 06:30 EIDW 030530Z 23014G25KT 180V260 9999 -RA FEW012 SCT030 BKN050 12/11 Q1007 NOSIG -RA SW (230°) 16.1mph 28.8mph 12°C 11°C
3/07/20 06:00 EIDW 030500Z 23015G25KT 170V270 9999 FEW012 SCT030 BKN100 12/10 Q1008 NOSIG SW (230°) 17.3mph 28.8mph 12°C 10°C
3/07/20 05:30 EIDW 030430Z 23012KT 190V300 9999 -RA FEW012 SCT030 BKN090 12/10 Q1008 NOSIG -RA SW (230°) 13.8mph 12°C 10°C
3/07/20 05:00 EIDW 030400Z 22014KT 190V260 9999 -RA FEW012 SCT017 BKN060 12/10 Q1008 NOSIG -RA SW (220°) 16.1mph 12°C 10°C
3/07/20 04:30 EIDW 030330Z 22010KT 190V260 9999 -RA FEW012 SCT030 BKN050 11/10 Q1009 NOSIG -RA SW (220°) 11.5mph 11°C 10°C
3/07/20 04:00 EIDW 030300Z 21011KT 170V260 9999 -RA FEW012 SCT022 BKN040 12/09 Q1009 NOSIG -RA SSW (210°) 12.7mph 12°C 9°C
3/07/20 03:30 EIDW 030230Z 21009KT 170V260 9999 -RA FEW012 SCT022 BKN040 12/10 Q1010 NOSIG -RA SSW (210°) 10.4mph 12°C 10°C
3/07/20 03:00 EIDW 030200Z 21007KT 160V240 9999 FEW012 SCT022 BKN040 12/11 Q1010 NOSIG SSW (210°) 8.1mph 12°C 11°C
3/07/20 02:30 EIDW 030130Z 21006KT 170V250 9999 -RA FEW012 SCT022 BKN040 12/11 Q1011 NOSIG -RA SSW (210°) 6.9mph 12°C 11°C
3/07/20 02:00 EIDW 030100Z 21007KT 180V270 9999 -RA FEW015 SCT023 BKN050 12/10 Q1012 NOSIG -RA SSW (210°) 8.1mph 12°C 10°C
3/07/20 01:30 EIDW 030030Z 22007KT 180V250 9999 -RA FEW017 SCT030 BKN060 12/10 Q1012 NOSIG -RA SW (220°) 8.1mph 12°C 10°C
3/07/20 01:00 EIDW 030000Z 22005KT 170V250 9999 -RADZ FEW022 BKN060 12/10 Q1012 NOSIG -RA -DZ SW (220°) 5.8mph 12°C 10°C
3/07/20 00:30 EIDW 022330Z 21004KT 170V240 9999 -RADZ FEW022 BKN040 13/09 Q1012 NOSIG -RA -DZ SSW (210°) 4.6mph 13°C 9°C
3/07/20 00:00 EIDW 022300Z 20004KT 160V240 9999 FEW022 BKN100 13/09 Q1012 NOSIG SSW (200°) 4.6mph 13°C 9°C
2/07/20 23:30 EIDW 022230Z 22004KT 200V270 9999 -RA FEW022 BKN100 13/08 Q1013 NOSIG -RA SW (220°) 4.6mph 13°C 8°C
2/07/20 23:00 EIDW 022200Z 22004KT 170V250 9999 FEW022 BKN100 13/08 Q1013 NOSIG SW (220°) 4.6mph 13°C 8°C
2/07/20 22:30 EIDW 022130Z 25004KT 210V300 9999 -RA FEW022 BKN100 14/08 Q1013 NOSIG -RA WSW (250°) 4.6mph 14°C 8°C
2/07/20 22:00 EIDW 022100Z 26006KT 230V290 CAVOK 14/08 Q1013 NOSIG W (260°) 6.9mph 14°C 8°C
2/07/20 21:30 EIDW 022030Z 26005KT 230V310 9999 FEW022 BKN150 14/08 Q1013 NOSIG W (260°) 5.8mph 14°C 8°C
2/07/20 21:00 EIDW 022000Z 28006KT 240V300 9999 FEW022 BKN060 14/09 Q1013 NOSIG W (280°) 6.9mph 14°C 9°C
2/07/20 20:30 EIDW 021930Z 27007KT 9999 FEW022 BKN050 15/09 Q1013 NOSIG W (270°) 8.1mph 15°C 9°C
2/07/20 20:00 EIDW 021900Z 26005KT 230V290 9999 FEW025 BKN050 15/08 Q1013 NOSIG W (260°) 5.8mph 15°C 8°C
2/07/20 19:30 EIDW 021830Z 25006KT 210V290 9999 FEW025 BKN050 15/08 Q1013 NOSIG WSW (250°) 6.9mph 15°C 8°C
2/07/20 19:00 EIDW 021800Z 27007KT 9999 FEW025 BKN050 15/08 Q1013 NOSIG W (270°) 8.1mph 15°C 8°C
2/07/20 18:30 EIDW 021730Z 27007KT 230V300 9999 FEW025 BKN050 16/08 Q1013 NOSIG W (270°) 8.1mph 16°C 8°C
2/07/20 18:00 EIDW 021700Z 28011KT 9999 FEW025 BKN050 16/08 Q1013 NOSIG W (280°) 12.7mph 16°C 8°C
2/07/20 17:30 EIDW 021630Z 29010KT 9999 FEW030 BKN050 16/08 Q1013 NOSIG WNW (290°) 11.5mph 16°C 8°C
2/07/20 17:00 EIDW 021600Z 28010KT 240V300 9999 FEW030 BKN050 16/07 Q1013 NOSIG W (280°) 11.5mph 16°C 7°C
2/07/20 16:30 EIDW 021530Z 26008KT 200V290 9999 FEW030 BKN050 16/07 Q1013 NOSIG W (260°) 9.2mph 16°C 7°C
2/07/20 16:00 EIDW 021500Z 27010KT 200V300 9999 FEW030 BKN050 17/07 Q1013 NOSIG W (270°) 11.5mph 17°C 7°C
2/07/20 15:30 EIDW 021430Z 28011KT 240V310 9999 FEW025 18/08 Q1013 NOSIG W (280°) 12.7mph 18°C 8°C
2/07/20 15:00 EIDW 021400Z 26009KT 9999 FEW025 17/08 Q1013 NOSIG W (260°) 10.4mph 17°C 8°C
2/07/20 14:30 EIDW 021330Z 30010KT 9999 FEW025 BKN050 15/09 Q1013 NOSIG WNW (300°) 11.5mph 15°C 9°C
2/07/20 14:00 EIDW 021300Z 28012KT 250V310 9999 FEW025 BKN050 17/10 Q1013 NOSIG W (280°) 13.8mph 17°C 10°C
2/07/20 13:30 EIDW 021230Z 31013KT 9999 FEW025 BKN050 15/09 Q1013 NOSIG NW (310°) 15.0mph 15°C 9°C
2/07/20 13:00 EIDW 021200Z 30012KT 9999 FEW025 BKN045 15/09 Q1013 NOSIG WNW (300°) 13.8mph 15°C 9°C
2/07/20 12:30 EIDW 021130Z 29011KT 240V320 9999 FEW018 BKN026 16/10 Q1012 NOSIG WNW (290°) 12.7mph 16°C 10°C
2/07/20 12:00 EIDW 021100Z 30009KT 9999 FEW018 BKN026 15/10 Q1012 NOSIG WNW (300°) 10.4mph 15°C 10°C
2/07/20 11:30 EIDW 021030Z 31008KT 280V010 9999 FEW014 BKN026 14/10 Q1012 NOSIG NW (310°) 9.2mph 14°C 10°C
2/07/20 11:00 EIDW 021000Z 30009KT 280V340 9999 SCT014 BKN026 14/11 Q1012 NOSIG WNW (300°) 10.4mph 14°C 11°C
2/07/20 10:30 EIDW 020930Z 30010KT 260V330 9999 FEW009 SCT014 BKN025 14/11 Q1012 NOSIG WNW (300°) 11.5mph 14°C 11°C
2/07/20 10:00 EIDW 020900Z 30009KT 9999 SCT009 BKN014 BKN022 13/11 Q1011 NOSIG WNW (300°) 10.4mph 13°C 11°C
2/07/20 09:30 EIDW 020830Z 30009KT 9999 SCT010 BKN014 BKN018 12/11 Q1011 NOSIG WNW (300°) 10.4mph 12°C 11°C
2/07/20 09:00 EIDW 020800Z 29010KT 9999 FEW006 SCT009 BKN012 12/11 Q1011 NOSIG WNW (290°) 11.5mph 12°C 11°C
2/07/20 08:30 EIDW 020730Z 30008KT 270V330 9999 FEW006 SCT009 BKN012 12/11 Q1010 NOSIG WNW (300°) 9.2mph 12°C 11°C
2/07/20 08:00 EIDW 020700Z 30008KT 9999 FEW006 SCT009 BKN012 12/10 Q1010 NOSIG WNW (300°) 9.2mph 12°C 10°C
2/07/20 07:30 EIDW 020630Z 30009KT 9999 FEW007 BKN011 11/10 Q1010 NOSIG WNW (300°) 10.4mph 11°C 10°C
2/07/20 07:00 EIDW 020600Z 30009KT 9999 FEW005 BKN010 11/10 Q1010 NOSIG WNW (300°) 10.4mph 11°C 10°C
2/07/20 06:30 EIDW 020530Z 30010KT 9999 FEW006 BKN009 11/10 Q1009 NOSIG WNW (300°) 11.5mph 11°C 10°C
2/07/20 06:00 EIDW 020500Z 30008KT 9999 FEW006 SCT010 BKN070 11/10 Q1009 NOSIG WNW (300°) 9.2mph 11°C 10°C
2/07/20 05:30 EIDW 020430Z 31007KT 9999 FEW006 BKN070 10/10 Q1008 NOSIG NW (310°) 8.1mph 10°C 10°C
2/07/20 05:00 EIDW 020400Z 31007KT 250V360 9999 FEW006 BKN070 11/10 Q1008 NOSIG NW (310°) 8.1mph 11°C 10°C
2/07/20 04:30 EIDW 020330Z 30008KT 9999 FEW012 BKN070 12/11 Q1008 NOSIG WNW (300°) 9.2mph 12°C 11°C
2/07/20 04:00 EIDW 020300Z 30008KT 9999 FEW012 BKN070 12/11 Q1008 NOSIG WNW (300°) 9.2mph 12°C 11°C
2/07/20 03:30 EIDW 020230Z 30005KT 9999 FEW012 SCT040 BKN060 12/12 Q1008 NOSIG WNW (300°) 5.8mph 12°C 12°C
2/07/20 03:00 EIDW 020200Z 31006KT 9999 FEW012 BKN060 12/12 Q1008 NOSIG NW (310°) 6.9mph 12°C 12°C
2/07/20 02:30 EIDW 020130Z 31006KT 9999 FEW010 BKN040 12/12 Q1007 NOSIG NW (310°) 6.9mph 12°C 12°C
2/07/20 02:00 EIDW 020100Z 32005KT 9999 -RA FEW006 SCT015 BKN040 12/12 Q1007 NOSIG -RA NW (320°) 5.8mph 12°C 12°C
2/07/20 01:30 EIDW 020030Z 31006KT 9000 -RA FEW003 SCT010 BKN017 13/13 Q1007 TEMPO 4000 BKN010 -RA NW (310°) 6.9mph 13°C 13°C
2/07/20 01:00 EIDW 020000Z 30005KT 9000 -RA FEW004 SCT010 BKN017 13/12 Q1007 TEMPO 4000 BKN010 -RA WNW (300°) 5.8mph 13°C 12°C
2/07/20 00:30 EIDW 012330Z 29005KT 9999 -RA FEW006 SCT013 BKN035 13/12 Q1007 TEMPO 4000 BKN010 -RA WNW (290°) 5.8mph 13°C 12°C
2/07/20 00:00 EIDW 012300Z 30005KT 9000 -RA FEW004 SCT010 BKN035 13/12 Q1007 TEMPO 4000 BKN010 -RA WNW (300°) 5.8mph 13°C 12°C
1/07/20 23:30 EIDW 012230Z 30003KT 7000 -RA FEW004 SCT010 BKN035 12/12 Q1007 TEMPO 4000 BKN010 -RA WNW (300°) 3.5mph 12°C 12°C